sensor_id;sensor_type;location;lat;lon;timestamp;temperature;humidity
39019;DHT22;24786;51.984;5.872;2023-09-07T00:01:26;21.10;99.90
39019;DHT22;24786;51.984;5.872;2023-09-07T00:03:52;21.10;99.90
39019;DHT22;24786;51.984;5.872;2023-09-07T00:06:17;21.10;99.90
39019;DHT22;24786;51.984;5.872;2023-09-07T00:08:43;21.10;99.90
39019;DHT22;24786;51.984;5.872;2023-09-07T00:11:09;21.10;99.90
39019;DHT22;24786;51.984;5.872;2023-09-07T00:13:35;21.00;99.90
39019;DHT22;24786;51.984;5.872;2023-09-07T00:16:01;20.90;99.90
39019;DHT22;24786;51.984;5.872;2023-09-07T00:18:27;21.00;99.90
39019;DHT22;24786;51.984;5.872;2023-09-07T00:20:52;21.00;99.90
39019;DHT22;24786;51.984;5.872;2023-09-07T00:23:18;20.90;99.90
39019;DHT22;24786;51.984;5.872;2023-09-07T00:25:45;20.90;99.90
39019;DHT22;24786;51.984;5.872;2023-09-07T00:28:10;20.80;99.90
39019;DHT22;24786;51.984;5.872;2023-09-07T00:30:36;20.80;99.90
39019;DHT22;24786;51.984;5.872;2023-09-07T00:33:02;20.70;99.90
39019;DHT22;24786;51.984;5.872;2023-09-07T00:35:27;20.70;99.90
39019;DHT22;24786;51.984;5.872;2023-09-07T00:37:53;20.70;99.90
39019;DHT22;24786;51.984;5.872;2023-09-07T00:40:20;20.70;99.90
39019;DHT22;24786;51.984;5.872;2023-09-07T00:42:45;20.50;99.90
39019;DHT22;24786;51.984;5.872;2023-09-07T00:45:10;20.60;99.90
39019;DHT22;24786;51.984;5.872;2023-09-07T00:47:36;20.50;99.90
39019;DHT22;24786;51.984;5.872;2023-09-07T00:50:03;20.50;99.90
39019;DHT22;24786;51.984;5.872;2023-09-07T00:52:29;20.50;99.90
39019;DHT22;24786;51.984;5.872;2023-09-07T00:54:55;20.50;99.90
39019;DHT22;24786;51.984;5.872;2023-09-07T00:57:21;20.40;99.90
39019;DHT22;24786;51.984;5.872;2023-09-07T00:59:46;20.40;99.90
39019;DHT22;24786;51.984;5.872;2023-09-07T01:02:12;20.40;99.90
39019;DHT22;24786;51.984;5.872;2023-09-07T01:04:37;20.40;99.90
39019;DHT22;24786;51.984;5.872;2023-09-07T01:07:07;20.40;99.90
39019;DHT22;24786;51.984;5.872;2023-09-07T01:09:35;20.30;99.90
39019;DHT22;24786;51.984;5.872;2023-09-07T01:12:02;20.40;99.90
39019;DHT22;24786;51.984;5.872;2023-09-07T01:14:27;20.40;99.90
39019;DHT22;24786;51.984;5.872;2023-09-07T01:16:53;20.40;99.90
39019;DHT22;24786;51.984;5.872;2023-09-07T01:19:19;20.40;99.90
39019;DHT22;24786;51.984;5.872;2023-09-07T01:21:44;20.40;99.90
39019;DHT22;24786;51.984;5.872;2023-09-07T01:24:11;20.30;99.90
39019;DHT22;24786;51.984;5.872;2023-09-07T01:26:37;20.40;99.90
39019;DHT22;24786;51.984;5.872;2023-09-07T01:29:06;20.40;99.90
39019;DHT22;24786;51.984;5.872;2023-09-07T01:31:35;20.40;99.90
39019;DHT22;24786;51.984;5.872;2023-09-07T01:34:00;20.40;99.90
39019;DHT22;24786;51.984;5.872;2023-09-07T01:36:26;20.40;99.90
39019;DHT22;24786;51.984;5.872;2023-09-07T01:38:51;20.40;99.90
39019;DHT22;24786;51.984;5.872;2023-09-07T01:41:17;20.40;99.90
39019;DHT22;24786;51.984;5.872;2023-09-07T01:43:42;20.40;99.90
39019;DHT22;24786;51.984;5.872;2023-09-07T01:46:08;20.50;99.90
39019;DHT22;24786;51.984;5.872;2023-09-07T01:48:34;20.50;99.90
39019;DHT22;24786;51.984;5.872;2023-09-07T01:51:00;20.40;99.90
39019;DHT22;24786;51.984;5.872;2023-09-07T01:53:26;20.50;99.90
39019;DHT22;24786;51.984;5.872;2023-09-07T01:55:53;20.50;99.90
39019;DHT22;24786;51.984;5.872;2023-09-07T01:58:19;20.50;99.90
39019;DHT22;24786;51.984;5.872;2023-09-07T02:00:45;20.40;99.90
39019;DHT22;24786;51.984;5.872;2023-09-07T02:03:10;20.40;99.90
39019;DHT22;24786;51.984;5.872;2023-09-07T02:05:36;20.50;99.90
39019;DHT22;24786;51.984;5.872;2023-09-07T02:08:01;20.40;99.90
39019;DHT22;24786;51.984;5.872;2023-09-07T02:10:27;20.40;99.90
39019;DHT22;24786;51.984;5.872;2023-09-07T02:12:53;20.40;99.90
39019;DHT22;24786;51.984;5.872;2023-09-07T02:15:18;20.40;99.90
39019;DHT22;24786;51.984;5.872;2023-09-07T02:17:44;20.40;99.90
39019;DHT22;24786;51.984;5.872;2023-09-07T02:20:10;20.30;99.90
39019;DHT22;24786;51.984;5.872;2023-09-07T02:22:36;20.30;99.90
39019;DHT22;24786;51.984;5.872;2023-09-07T02:25:02;20.30;99.90
39019;DHT22;24786;51.984;5.872;2023-09-07T02:27:28;20.20;99.90
39019;DHT22;24786;51.984;5.872;2023-09-07T02:29:54;20.20;99.90
39019;DHT22;24786;51.984;5.872;2023-09-07T02:32:19;20.20;99.90
39019;DHT22;24786;51.984;5.872;2023-09-07T02:34:50;20.10;99.90
39019;DHT22;24786;51.984;5.872;2023-09-07T02:37:15;20.10;99.90
39019;DHT22;24786;51.984;5.872;2023-09-07T02:39:41;20.10;99.90
39019;DHT22;24786;51.984;5.872;2023-09-07T02:42:07;20.10;99.90
39019;DHT22;24786;51.984;5.872;2023-09-07T02:44:33;20.10;99.90
39019;DHT22;24786;51.984;5.872;2023-09-07T02:46:58;20.00;99.90
39019;DHT22;24786;51.984;5.872;2023-09-07T02:49:24;20.00;99.90
39019;DHT22;24786;51.984;5.872;2023-09-07T02:51:49;20.00;99.90
39019;DHT22;24786;51.984;5.872;2023-09-07T02:54:15;19.90;99.90
39019;DHT22;24786;51.984;5.872;2023-09-07T02:56:40;19.90;99.90
39019;DHT22;24786;51.984;5.872;2023-09-07T02:59:05;19.80;99.90
39019;DHT22;24786;51.984;5.872;2023-09-07T03:01:31;19.80;99.90
39019;DHT22;24786;51.984;5.872;2023-09-07T03:03:56;19.80;99.90
39019;DHT22;24786;51.984;5.872;2023-09-07T03:06:22;19.80;99.90
39019;DHT22;24786;51.984;5.872;2023-09-07T03:08:47;19.80;99.90
39019;DHT22;24786;51.984;5.872;2023-09-07T03:11:13;19.80;99.90
39019;DHT22;24786;51.984;5.872;2023-09-07T03:13:38;19.90;99.90
39019;DHT22;24786;51.984;5.872;2023-09-07T03:16:04;19.70;99.90
39019;DHT22;24786;51.984;5.872;2023-09-07T03:18:30;19.70;99.90
39019;DHT22;24786;51.984;5.872;2023-09-07T03:20:56;19.70;99.90
39019;DHT22;24786;51.984;5.872;2023-09-07T03:23:23;19.60;99.90
39019;DHT22;24786;51.984;5.872;2023-09-07T03:25:48;19.60;99.90
39019;DHT22;24786;51.984;5.872;2023-09-07T03:28:14;19.60;99.90
39019;DHT22;24786;51.984;5.872;2023-09-07T03:30:39;19.60;99.90
39019;DHT22;24786;51.984;5.872;2023-09-07T03:33:05;19.60;99.90
39019;DHT22;24786;51.984;5.872;2023-09-07T03:35:31;19.60;99.90
39019;DHT22;24786;51.984;5.872;2023-09-07T03:37:56;19.60;99.90
39019;DHT22;24786;51.984;5.872;2023-09-07T03:40:22;19.60;99.90
39019;DHT22;24786;51.984;5.872;2023-09-07T03:42:47;19.50;99.90
39019;DHT22;24786;51.984;5.872;2023-09-07T03:45:13;19.60;99.90
39019;DHT22;24786;51.984;5.872;2023-09-07T03:47:38;19.60;99.90
39019;DHT22;24786;51.984;5.872;2023-09-07T03:50:04;19.60;99.90
39019;DHT22;24786;51.984;5.872;2023-09-07T03:52:30;19.60;99.90
39019;DHT22;24786;51.984;5.872;2023-09-07T03:54:55;19.60;99.90
39019;DHT22;24786;51.984;5.872;2023-09-07T03:57:22;19.60;99.90
39019;DHT22;24786;51.984;5.872;2023-09-07T03:59:48;19.60;99.90
39019;DHT22;24786;51.984;5.872;2023-09-07T04:02:13;19.60;99.90
39019;DHT22;24786;51.984;5.872;2023-09-07T04:04:39;19.60;99.90
39019;DHT22;24786;51.984;5.872;2023-09-07T04:07:05;19.60;99.90
39019;DHT22;24786;51.984;5.872;2023-09-07T04:09:31;19.60;99.90
39019;DHT22;24786;51.984;5.872;2023-09-07T04:11:56;19.50;99.90
39019;DHT22;24786;51.984;5.872;2023-09-07T04:14:22;19.60;99.90
39019;DHT22;24786;51.984;5.872;2023-09-07T04:16:47;19.60;99.90
39019;DHT22;24786;51.984;5.872;2023-09-07T04:19:13;19.60;99.90
39019;DHT22;24786;51.984;5.872;2023-09-07T04:21:38;19.60;99.90
39019;DHT22;24786;51.984;5.872;2023-09-07T04:24:04;19.50;99.90
39019;DHT22;24786;51.984;5.872;2023-09-07T04:26:29;19.50;99.90
39019;DHT22;24786;51.984;5.872;2023-09-07T04:28:55;19.50;99.90
39019;DHT22;24786;51.984;5.872;2023-09-07T04:31:21;19.50;99.90
39019;DHT22;24786;51.984;5.872;2023-09-07T04:33:47;19.40;99.90
39019;DHT22;24786;51.984;5.872;2023-09-07T04:36:15;19.40;99.90
39019;DHT22;24786;51.984;5.872;2023-09-07T04:38:41;19.40;99.90
39019;DHT22;24786;51.984;5.872;2023-09-07T04:41:07;19.40;99.90
39019;DHT22;24786;51.984;5.872;2023-09-07T04:43:33;19.40;99.90
39019;DHT22;24786;51.984;5.872;2023-09-07T04:45:58;19.30;99.90
39019;DHT22;24786;51.984;5.872;2023-09-07T04:48:24;19.30;99.90
39019;DHT22;24786;51.984;5.872;2023-09-07T04:50:57;19.30;99.90
39019;DHT22;24786;51.984;5.872;2023-09-07T04:53:22;19.20;99.90
39019;DHT22;24786;51.984;5.872;2023-09-07T04:55:48;19.20;99.90
39019;DHT22;24786;51.984;5.872;2023-09-07T04:58:13;19.10;99.90
39019;DHT22;24786;51.984;5.872;2023-09-07T05:00:38;19.20;99.90
39019;DHT22;24786;51.984;5.872;2023-09-07T05:03:04;19.20;99.90
39019;DHT22;24786;51.984;5.872;2023-09-07T05:05:29;19.20;99.90
39019;DHT22;24786;51.984;5.872;2023-09-07T05:07:55;19.20;99.90
39019;DHT22;24786;51.984;5.872;2023-09-07T05:10:21;19.20;99.90
39019;DHT22;24786;51.984;5.872;2023-09-07T05:12:46;19.10;99.90
39019;DHT22;24786;51.984;5.872;2023-09-07T05:15:12;19.20;99.90
39019;DHT22;24786;51.984;5.872;2023-09-07T05:17:37;19.10;99.90
39019;DHT22;24786;51.984;5.872;2023-09-07T05:20:03;19.10;99.90
39019;DHT22;24786;51.984;5.872;2023-09-07T05:22:29;19.10;99.90
39019;DHT22;24786;51.984;5.872;2023-09-07T05:24:55;19.00;99.90
39019;DHT22;24786;51.984;5.872;2023-09-07T05:27:20;19.00;99.90
39019;DHT22;24786;51.984;5.872;2023-09-07T05:29:46;19.10;99.90
39019;DHT22;24786;51.984;5.872;2023-09-07T05:32:12;19.00;99.90
39019;DHT22;24786;51.984;5.872;2023-09-07T05:34:38;19.10;99.90
39019;DHT22;24786;51.984;5.872;2023-09-07T05:37:04;19.20;99.90
39019;DHT22;24786;51.984;5.872;2023-09-07T05:39:30;19.20;99.90
39019;DHT22;24786;51.984;5.872;2023-09-07T05:42:07;19.30;99.90
39019;DHT22;24786;51.984;5.872;2023-09-07T05:44:33;19.30;99.90
39019;DHT22;24786;51.984;5.872;2023-09-07T05:46:58;19.30;99.90
39019;DHT22;24786;51.984;5.872;2023-09-07T05:49:24;19.30;99.90
39019;DHT22;24786;51.984;5.872;2023-09-07T05:51:50;19.40;99.90
39019;DHT22;24786;51.984;5.872;2023-09-07T05:54:15;19.40;99.90
39019;DHT22;24786;51.984;5.872;2023-09-07T05:56:41;19.40;99.90
39019;DHT22;24786;51.984;5.872;2023-09-07T05:59:06;19.50;99.90
39019;DHT22;24786;51.984;5.872;2023-09-07T06:01:32;19.50;99.90
39019;DHT22;24786;51.984;5.872;2023-09-07T06:03:58;19.50;99.90
39019;DHT22;24786;51.984;5.872;2023-09-07T06:06:24;19.60;99.90
39019;DHT22;24786;51.984;5.872;2023-09-07T06:08:49;19.60;99.90
39019;DHT22;24786;51.984;5.872;2023-09-07T06:11:15;19.70;99.90
39019;DHT22;24786;51.984;5.872;2023-09-07T06:13:41;19.80;99.90
39019;DHT22;24786;51.984;5.872;2023-09-07T06:16:06;19.80;99.90
39019;DHT22;24786;51.984;5.872;2023-09-07T06:18:32;19.90;99.90
39019;DHT22;24786;51.984;5.872;2023-09-07T06:20:57;19.80;99.90
39019;DHT22;24786;51.984;5.872;2023-09-07T06:23:23;19.90;99.90
39019;DHT22;24786;51.984;5.872;2023-09-07T06:25:48;19.90;99.90
39019;DHT22;24786;51.984;5.872;2023-09-07T06:28:14;20.00;99.90
39019;DHT22;24786;51.984;5.872;2023-09-07T06:30:40;20.00;99.90
39019;DHT22;24786;51.984;5.872;2023-09-07T06:33:05;20.20;99.90
39019;DHT22;24786;51.984;5.872;2023-09-07T06:35:31;20.20;99.90
39019;DHT22;24786;51.984;5.872;2023-09-07T06:37:56;20.30;99.90
39019;DHT22;24786;51.984;5.872;2023-09-07T06:40:22;20.30;99.90
39019;DHT22;24786;51.984;5.872;2023-09-07T06:42:47;20.40;99.90
39019;DHT22;24786;51.984;5.872;2023-09-07T06:45:13;20.30;99.90
39019;DHT22;24786;51.984;5.872;2023-09-07T06:47:38;20.40;99.90
39019;DHT22;24786;51.984;5.872;2023-09-07T06:50:04;20.50;99.90
39019;DHT22;24786;51.984;5.872;2023-09-07T06:52:30;20.50;99.90
39019;DHT22;24786;51.984;5.872;2023-09-07T06:54:55;20.60;99.90
39019;DHT22;24786;51.984;5.872;2023-09-07T06:57:21;20.60;99.90
39019;DHT22;24786;51.984;5.872;2023-09-07T06:59:46;20.60;99.90
39019;DHT22;24786;51.984;5.872;2023-09-07T07:02:12;20.70;99.90
39019;DHT22;24786;51.984;5.872;2023-09-07T07:04:37;20.70;99.90
39019;DHT22;24786;51.984;5.872;2023-09-07T07:07:03;20.80;99.90
39019;DHT22;24786;51.984;5.872;2023-09-07T07:09:30;20.80;99.90
39019;DHT22;24786;51.984;5.872;2023-09-07T07:11:55;20.90;99.90
39019;DHT22;24786;51.984;5.872;2023-09-07T07:14:21;20.90;99.90
39019;DHT22;24786;51.984;5.872;2023-09-07T07:16:46;21.00;99.90
39019;DHT22;24786;51.984;5.872;2023-09-07T07:19:12;21.00;99.90
39019;DHT22;24786;51.984;5.872;2023-09-07T07:21:38;21.10;99.90
39019;DHT22;24786;51.984;5.872;2023-09-07T07:24:03;21.20;99.90
39019;DHT22;24786;51.984;5.872;2023-09-07T07:26:32;21.20;99.90
39019;DHT22;24786;51.984;5.872;2023-09-07T07:28:57;21.30;99.90
39019;DHT22;24786;51.984;5.872;2023-09-07T07:31:22;21.20;99.90
39019;DHT22;24786;51.984;5.872;2023-09-07T07:33:48;21.30;99.90
39019;DHT22;24786;51.984;5.872;2023-09-07T07:36:14;21.40;99.90
39019;DHT22;24786;51.984;5.872;2023-09-07T07:41:31;21.40;99.90
39019;DHT22;24786;51.984;5.872;2023-09-07T07:43:57;21.50;99.90
39019;DHT22;24786;51.984;5.872;2023-09-07T07:46:22;21.60;99.90
39019;DHT22;24786;51.984;5.872;2023-09-07T07:48:48;21.60;99.90
39019;DHT22;24786;51.984;5.872;2023-09-07T07:51:13;21.70;99.90
39019;DHT22;24786;51.984;5.872;2023-09-07T07:53:39;21.80;99.90
39019;DHT22;24786;51.984;5.872;2023-09-07T07:56:04;21.80;99.90
39019;DHT22;24786;51.984;5.872;2023-09-07T07:58:30;21.80;99.90
39019;DHT22;24786;51.984;5.872;2023-09-07T08:00:55;22.00;99.90
39019;DHT22;24786;51.984;5.872;2023-09-07T08:03:40;22.00;99.90
39019;DHT22;24786;51.984;5.872;2023-09-07T08:06:06;22.10;99.90
39019;DHT22;24786;51.984;5.872;2023-09-07T08:08:31;22.10;99.90
39019;DHT22;24786;51.984;5.872;2023-09-07T08:10:57;22.20;99.90
39019;DHT22;24786;51.984;5.872;2023-09-07T08:13:24;22.30;99.90
39019;DHT22;24786;51.984;5.872;2023-09-07T08:15:49;22.30;99.90
39019;DHT22;24786;51.984;5.872;2023-09-07T08:18:15;22.40;99.90
39019;DHT22;24786;51.984;5.872;2023-09-07T08:20:40;22.40;99.90
39019;DHT22;24786;51.984;5.872;2023-09-07T08:23:06;22.50;99.90
39019;DHT22;24786;51.984;5.872;2023-09-07T08:25:33;22.60;99.90
39019;DHT22;24786;51.984;5.872;2023-09-07T08:27:59;22.70;99.90
39019;DHT22;24786;51.984;5.872;2023-09-07T08:30:25;22.70;99.90
39019;DHT22;24786;51.984;5.872;2023-09-07T08:32:51;22.80;99.90
39019;DHT22;24786;51.984;5.872;2023-09-07T08:35:16;22.80;99.90
39019;DHT22;24786;51.984;5.872;2023-09-07T08:37:42;22.90;99.90
39019;DHT22;24786;51.984;5.872;2023-09-07T08:40:08;23.10;99.90
39019;DHT22;24786;51.984;5.872;2023-09-07T08:42:35;23.10;99.90
39019;DHT22;24786;51.984;5.872;2023-09-07T08:45:02;23.10;99.90
39019;DHT22;24786;51.984;5.872;2023-09-07T08:47:33;23.20;99.90
39019;DHT22;24786;51.984;5.872;2023-09-07T08:49:59;23.20;99.90
39019;DHT22;24786;51.984;5.872;2023-09-07T08:52:25;23.30;99.90
39019;DHT22;24786;51.984;5.872;2023-09-07T08:54:50;23.30;99.90
39019;DHT22;24786;51.984;5.872;2023-09-07T08:57:17;23.40;99.90
39019;DHT22;24786;51.984;5.872;2023-09-07T08:59:43;23.40;99.90
39019;DHT22;24786;51.984;5.872;2023-09-07T09:02:11;23.50;99.90
39019;DHT22;24786;51.984;5.872;2023-09-07T09:04:37;23.50;99.90
39019;DHT22;24786;51.984;5.872;2023-09-07T09:07:02;23.60;99.90
39019;DHT22;24786;51.984;5.872;2023-09-07T09:09:29;23.70;99.90
39019;DHT22;24786;51.984;5.872;2023-09-07T09:11:54;23.70;99.90
39019;DHT22;24786;51.984;5.872;2023-09-07T09:14:20;23.80;99.90
39019;DHT22;24786;51.984;5.872;2023-09-07T09:16:48;23.80;99.90
39019;DHT22;24786;51.984;5.872;2023-09-07T09:19:14;23.90;99.90
39019;DHT22;24786;51.984;5.872;2023-09-07T09:21:40;24.10;99.90
39019;DHT22;24786;51.984;5.872;2023-09-07T09:24:09;24.00;99.90
39019;DHT22;24786;51.984;5.872;2023-09-07T09:26:36;24.20;99.90
39019;DHT22;24786;51.984;5.872;2023-09-07T09:29:01;24.30;99.90
39019;DHT22;24786;51.984;5.872;2023-09-07T09:31:27;24.40;99.90
39019;DHT22;24786;51.984;5.872;2023-09-07T09:33:52;24.50;99.90
39019;DHT22;24786;51.984;5.872;2023-09-07T09:36:18;24.50;99.90
39019;DHT22;24786;51.984;5.872;2023-09-07T09:38:47;24.60;99.90
39019;DHT22;24786;51.984;5.872;2023-09-07T09:41:12;24.70;99.90
39019;DHT22;24786;51.984;5.872;2023-09-07T09:43:38;24.80;99.90
39019;DHT22;24786;51.984;5.872;2023-09-07T09:46:04;24.90;99.90
39019;DHT22;24786;51.984;5.872;2023-09-07T09:48:31;25.10;99.90
39019;DHT22;24786;51.984;5.872;2023-09-07T09:50:57;25.20;99.90
39019;DHT22;24786;51.984;5.872;2023-09-07T09:53:24;25.20;99.90
39019;DHT22;24786;51.984;5.872;2023-09-07T09:55:52;25.30;99.90
39019;DHT22;24786;51.984;5.872;2023-09-07T09:58:18;25.40;99.90
39019;DHT22;24786;51.984;5.872;2023-09-07T10:00:44;25.50;99.90
39019;DHT22;24786;51.984;5.872;2023-09-07T10:03:11;25.50;99.90
39019;DHT22;24786;51.984;5.872;2023-09-07T10:05:37;25.60;99.90
39019;DHT22;24786;51.984;5.872;2023-09-07T10:08:08;25.70;99.90
39019;DHT22;24786;51.984;5.872;2023-09-07T10:10:37;25.80;99.90
39019;DHT22;24786;51.984;5.872;2023-09-07T10:13:03;25.90;99.90
39019;DHT22;24786;51.984;5.872;2023-09-07T10:15:31;25.90;99.90
39019;DHT22;24786;51.984;5.872;2023-09-07T10:20:34;26.00;99.90
39019;DHT22;24786;51.984;5.872;2023-09-07T10:23:03;26.10;99.90
39019;DHT22;24786;51.984;5.872;2023-09-07T10:25:29;26.20;99.90
39019;DHT22;24786;51.984;5.872;2023-09-07T10:27:55;26.20;99.90
39019;DHT22;24786;51.984;5.872;2023-09-07T10:30:21;26.30;99.90
39019;DHT22;24786;51.984;5.872;2023-09-07T10:32:49;26.30;99.90
39019;DHT22;24786;51.984;5.872;2023-09-07T10:35:15;26.40;99.90
39019;DHT22;24786;51.984;5.872;2023-09-07T10:37:44;26.40;99.90
39019;DHT22;24786;51.984;5.872;2023-09-07T10:40:10;26.50;99.90
39019;DHT22;24786;51.984;5.872;2023-09-07T10:42:37;26.50;99.90
39019;DHT22;24786;51.984;5.872;2023-09-07T10:45:12;26.60;99.90
39019;DHT22;24786;51.984;5.872;2023-09-07T10:47:41;26.60;99.90
39019;DHT22;24786;51.984;5.872;2023-09-07T10:50:07;26.70;99.90
39019;DHT22;24786;51.984;5.872;2023-09-07T10:52:33;26.70;99.90
39019;DHT22;24786;51.984;5.872;2023-09-07T10:54:58;26.80;99.90
39019;DHT22;24786;51.984;5.872;2023-09-07T10:57:24;26.90;99.90
39019;DHT22;24786;51.984;5.872;2023-09-07T10:59:49;26.90;99.90
39019;DHT22;24786;51.984;5.872;2023-09-07T11:02:15;27.10;99.90
39019;DHT22;24786;51.984;5.872;2023-09-07T11:04:41;27.10;99.90
39019;DHT22;24786;51.984;5.872;2023-09-07T11:07:06;27.20;99.90
39019;DHT22;24786;51.984;5.872;2023-09-07T11:09:32;27.20;99.90
39019;DHT22;24786;51.984;5.872;2023-09-07T11:12:03;27.20;99.90
39019;DHT22;24786;51.984;5.872;2023-09-07T11:14:29;27.30;99.90
39019;DHT22;24786;51.984;5.872;2023-09-07T11:16:55;27.40;99.60
39019;DHT22;24786;51.984;5.872;2023-09-07T11:19:21;27.40;99.70
39019;DHT22;24786;51.984;5.872;2023-09-07T11:21:47;27.50;99.60
39019;DHT22;24786;51.984;5.872;2023-09-07T11:24:12;27.60;99.50
39019;DHT22;24786;51.984;5.872;2023-09-07T11:26:42;27.60;99.10
39019;DHT22;24786;51.984;5.872;2023-09-07T11:29:08;27.70;99.00
39019;DHT22;24786;51.984;5.872;2023-09-07T11:31:33;27.80;99.20
39019;DHT22;24786;51.984;5.872;2023-09-07T11:33:59;27.80;98.70
39019;DHT22;24786;51.984;5.872;2023-09-07T11:36:24;27.90;98.00
39019;DHT22;24786;51.984;5.872;2023-09-07T11:38:50;27.90;98.50
39019;DHT22;24786;51.984;5.872;2023-09-07T11:41:16;28.00;98.00
39019;DHT22;24786;51.984;5.872;2023-09-07T11:43:44;28.00;98.20
39019;DHT22;24786;51.984;5.872;2023-09-07T11:46:10;28.10;98.30
39019;DHT22;24786;51.984;5.872;2023-09-07T11:48:36;28.20;98.10
39019;DHT22;24786;51.984;5.872;2023-09-07T11:51:02;28.20;98.10
39019;DHT22;24786;51.984;5.872;2023-09-07T11:53:28;28.30;97.90
39019;DHT22;24786;51.984;5.872;2023-09-07T11:55:53;28.30;97.80
39019;DHT22;24786;51.984;5.872;2023-09-07T11:58:19;28.40;97.80
39019;DHT22;24786;51.984;5.872;2023-09-07T12:00:44;28.60;97.70
39019;DHT22;24786;51.984;5.872;2023-09-07T12:03:10;28.60;97.30
39019;DHT22;24786;51.984;5.872;2023-09-07T12:05:35;28.70;97.30
39019;DHT22;24786;51.984;5.872;2023-09-07T12:08:03;28.70;97.00
39019;DHT22;24786;51.984;5.872;2023-09-07T12:10:28;28.80;97.10
39019;DHT22;24786;51.984;5.872;2023-09-07T12:12:54;28.90;97.00
39019;DHT22;24786;51.984;5.872;2023-09-07T12:15:19;29.00;96.70
39019;DHT22;24786;51.984;5.872;2023-09-07T12:17:45;29.00;96.70
39019;DHT22;24786;51.984;5.872;2023-09-07T12:20:10;29.10;96.20
39019;DHT22;24786;51.984;5.872;2023-09-07T12:22:38;29.10;96.50
39019;DHT22;24786;51.984;5.872;2023-09-07T12:25:04;29.10;95.10
39019;DHT22;24786;51.984;5.872;2023-09-07T12:27:32;29.20;95.60
39019;DHT22;24786;51.984;5.872;2023-09-07T12:29:58;29.30;95.80
39019;DHT22;24786;51.984;5.872;2023-09-07T12:32:24;29.30;95.90
39019;DHT22;24786;51.984;5.872;2023-09-07T12:34:49;29.40;95.60
39019;DHT22;24786;51.984;5.872;2023-09-07T12:37:19;29.50;95.50
39019;DHT22;24786;51.984;5.872;2023-09-07T12:39:44;29.50;95.40
39019;DHT22;24786;51.984;5.872;2023-09-07T12:42:10;29.60;95.40
39019;DHT22;24786;51.984;5.872;2023-09-07T12:44:35;29.70;95.30
39019;DHT22;24786;51.984;5.872;2023-09-07T12:47:01;29.70;95.40
39019;DHT22;24786;51.984;5.872;2023-09-07T12:49:26;29.70;95.20
39019;DHT22;24786;51.984;5.872;2023-09-07T12:51:52;29.70;94.70
39019;DHT22;24786;51.984;5.872;2023-09-07T12:54:17;29.60;94.00
39019;DHT22;24786;51.984;5.872;2023-09-07T12:56:43;29.50;94.10
39019;DHT22;24786;51.984;5.872;2023-09-07T12:59:09;29.50;94.40
39019;DHT22;24786;51.984;5.872;2023-09-07T13:01:35;29.50;93.90
39019;DHT22;24786;51.984;5.872;2023-09-07T13:04:00;29.60;94.50
39019;DHT22;24786;51.984;5.872;2023-09-07T13:06:26;29.60;94.30
39019;DHT22;24786;51.984;5.872;2023-09-07T13:08:51;29.60;94.60
39019;DHT22;24786;51.984;5.872;2023-09-07T13:11:17;29.60;94.50
39019;DHT22;24786;51.984;5.872;2023-09-07T13:13:43;29.60;94.20
39019;DHT22;24786;51.984;5.872;2023-09-07T13:16:09;29.60;94.00
39019;DHT22;24786;51.984;5.872;2023-09-07T13:18:35;29.60;94.20
39019;DHT22;24786;51.984;5.872;2023-09-07T13:21:00;29.60;94.30
39019;DHT22;24786;51.984;5.872;2023-09-07T13:23:26;29.70;94.50
39019;DHT22;24786;51.984;5.872;2023-09-07T13:25:52;29.70;94.60
39019;DHT22;24786;51.984;5.872;2023-09-07T13:28:17;29.70;94.50
39019;DHT22;24786;51.984;5.872;2023-09-07T13:30:43;29.70;94.60
39019;DHT22;24786;51.984;5.872;2023-09-07T13:33:08;29.70;94.70
39019;DHT22;24786;51.984;5.872;2023-09-07T13:35:34;29.70;94.40
39019;DHT22;24786;51.984;5.872;2023-09-07T13:37:59;29.70;94.50
39019;DHT22;24786;51.984;5.872;2023-09-07T13:40:25;29.60;94.40
39019;DHT22;24786;51.984;5.872;2023-09-07T13:42:54;29.60;94.40
39019;DHT22;24786;51.984;5.872;2023-09-07T13:45:20;29.70;94.60
39019;DHT22;24786;51.984;5.872;2023-09-07T13:47:46;29.70;94.50
39019;DHT22;24786;51.984;5.872;2023-09-07T13:50:11;29.70;94.50
39019;DHT22;24786;51.984;5.872;2023-09-07T13:52:37;29.60;94.60
39019;DHT22;24786;51.984;5.872;2023-09-07T13:55:02;29.70;94.70
39019;DHT22;24786;51.984;5.872;2023-09-07T13:57:28;29.70;94.80
39019;DHT22;24786;51.984;5.872;2023-09-07T13:59:53;29.70;94.90
39019;DHT22;24786;51.984;5.872;2023-09-07T14:02:19;29.70;94.90
39019;DHT22;24786;51.984;5.872;2023-09-07T14:04:44;29.60;94.70
39019;DHT22;24786;51.984;5.872;2023-09-07T14:07:10;29.60;94.80
39019;DHT22;24786;51.984;5.872;2023-09-07T14:09:35;29.50;94.80
39019;DHT22;24786;51.984;5.872;2023-09-07T14:12:01;29.50;94.90
39019;DHT22;24786;51.984;5.872;2023-09-07T14:14:27;29.50;94.90
39019;DHT22;24786;51.984;5.872;2023-09-07T14:16:53;29.50;94.70
39019;DHT22;24786;51.984;5.872;2023-09-07T14:19:22;29.50;94.80
39019;DHT22;24786;51.984;5.872;2023-09-07T14:21:47;29.50;95.00
39019;DHT22;24786;51.984;5.872;2023-09-07T14:24:13;29.50;95.10
39019;DHT22;24786;51.984;5.872;2023-09-07T14:26:38;29.50;95.00
39019;DHT22;24786;51.984;5.872;2023-09-07T14:29:04;29.50;95.00
39019;DHT22;24786;51.984;5.872;2023-09-07T14:31:30;29.40;95.00
39019;DHT22;24786;51.984;5.872;2023-09-07T14:33:55;29.40;95.00
39019;DHT22;24786;51.984;5.872;2023-09-07T14:36:21;29.40;95.10
39019;DHT22;24786;51.984;5.872;2023-09-07T14:38:46;29.40;95.20
39019;DHT22;24786;51.984;5.872;2023-09-07T14:41:12;29.40;95.10
39019;DHT22;24786;51.984;5.872;2023-09-07T14:43:43;29.40;95.20
39019;DHT22;24786;51.984;5.872;2023-09-07T14:46:08;29.40;95.30
39019;DHT22;24786;51.984;5.872;2023-09-07T14:48:34;29.50;95.40
39019;DHT22;24786;51.984;5.872;2023-09-07T14:50:59;29.50;95.40
39019;DHT22;24786;51.984;5.872;2023-09-07T14:53:24;29.40;95.30
39019;DHT22;24786;51.984;5.872;2023-09-07T14:55:50;29.40;95.30
39019;DHT22;24786;51.984;5.872;2023-09-07T14:58:15;29.40;95.30
39019;DHT22;24786;51.984;5.872;2023-09-07T15:00:41;29.30;95.30
39019;DHT22;24786;51.984;5.872;2023-09-07T15:03:06;29.30;95.40
39019;DHT22;24786;51.984;5.872;2023-09-07T15:05:32;29.30;95.50
39019;DHT22;24786;51.984;5.872;2023-09-07T15:07:57;29.30;95.30
39019;DHT22;24786;51.984;5.872;2023-09-07T15:10:23;29.30;95.40
39019;DHT22;24786;51.984;5.872;2023-09-07T15:12:51;29.30;95.20
39019;DHT22;24786;51.984;5.872;2023-09-07T15:15:16;29.30;95.30
39019;DHT22;24786;51.984;5.872;2023-09-07T15:17:45;29.20;95.20
39019;DHT22;24786;51.984;5.872;2023-09-07T15:20:11;29.20;95.00
39019;DHT22;24786;51.984;5.872;2023-09-07T15:22:37;29.20;94.90
39019;DHT22;24786;51.984;5.872;2023-09-07T15:25:02;29.10;94.90
39019;DHT22;24786;51.984;5.872;2023-09-07T15:27:28;29.10;94.70